createdAt,value
2019-02-17T00:03:07.359Z,102134.03
2019-02-17T00:08:10.038Z,102125.03
2019-02-17T00:13:12.687Z,102121.70
2019-02-17T00:18:15.333Z,102133.50
2019-02-17T00:23:18.012Z,102132.62
2019-02-17T00:28:20.698Z,102137.76
2019-02-17T00:33:23.376Z,102142.30
2019-02-17T00:38:26.048Z,102138.25
2019-02-17T00:43:28.752Z,102137.47
2019-02-17T00:48:31.420Z,102126.03
2019-02-17T00:53:34.072Z,102126.13
2019-02-17T00:58:36.729Z,102126.42
2019-02-17T01:03:39.381Z,102132.27
2019-02-17T01:08:42.044Z,102133.75
2019-02-17T01:13:44.721Z,102146.08
2019-02-17T01:18:47.391Z,102138.08
2019-02-17T01:23:50.089Z,102144.38
2019-02-17T01:28:52.767Z,102147.64
2019-02-17T01:33:55.435Z,102134.21
2019-02-17T01:38:58.104Z,102140.45
2019-02-17T01:44:00.771Z,102141.34
2019-02-17T01:49:03.423Z,102139.95
2019-02-17T01:54:06.097Z,102155.26
2019-02-17T01:59:08.748Z,102140.45
2019-02-17T02:04:11.388Z,102137.19
2019-02-17T02:09:14.166Z,102137.47
2019-02-17T02:14:16.780Z,102139.84
2019-02-17T02:19:19.440Z,102145.69
2019-02-17T02:24:22.125Z,102148.03
2019-02-17T02:29:24.872Z,102151.22
2019-02-17T02:34:27.535Z,102147.57
2019-02-17T02:39:30.206Z,102147.25
2019-02-17T02:44:32.876Z,102148.84
2019-02-17T02:49:35.535Z,102148.53
2019-02-17T02:54:38.215Z,102153.48
2019-02-17T02:59:51.760Z,102149.23
2019-02-17T03:04:45.173Z,102148.34
2019-02-17T03:09:47.884Z,102146.19
2019-02-17T03:14:50.564Z,102142.11
2019-02-17T03:19:53.244Z,102143.31
2019-02-17T03:24:55.887Z,102150.23
2019-02-17T03:30:05.145Z,102144.10
2019-02-17T03:35:02.889Z,102148.25
2019-02-17T03:40:06.913Z,102141.34
2019-02-17T03:45:09.989Z,102142.01
2019-02-17T03:50:12.647Z,102140.06
2019-02-17T03:55:15.299Z,102139.56
2019-02-17T04:00:17.966Z,102126.73
2019-02-17T04:05:20.653Z,102131.16
2019-02-17T04:10:23.340Z,102131.55
2019-02-17T04:15:26.102Z,102136.88
2019-02-17T04:20:28.799Z,102140.52
2019-02-17T04:25:31.453Z,102137.27
2019-02-17T04:30:34.118Z,102131.13
2019-02-17T04:35:36.792Z,102132.02
2019-02-17T04:40:39.464Z,102134.60
2019-02-17T04:45:42.120Z,102133.72
2019-02-17T04:50:44.779Z,102129.18
2019-02-17T04:55:47.448Z,102129.75
2019-02-17T05:00:50.213Z,102138.53
2019-02-17T05:05:52.815Z,102135.77
2019-02-17T05:10:55.465Z,102132.61
2019-02-17T05:15:58.136Z,102136.98
2019-02-17T05:21:00.792Z,102145.45
2019-02-17T05:26:03.470Z,102152.96
2019-02-17T05:31:06.138Z,102157.50
2019-02-17T05:36:08.777Z,102157.78
2019-02-17T05:41:11.430Z,102168.95
2019-02-17T05:46:14.089Z,102172.98
2019-02-17T05:51:16.787Z,102179.90
2019-02-17T05:56:19.441Z,102185.53
2019-02-17T06:01:22.122Z,102181.39
2019-02-17T06:06:24.763Z,102183.05
2019-02-17T06:11:27.471Z,102187.30
2019-02-17T06:16:30.144Z,102198.26
2019-02-17T06:21:32.816Z,102195.10
2019-02-17T06:26:35.488Z,102192.63
2019-02-17T06:31:38.144Z,102198.44
2019-02-17T06:36:41.049Z,102196.98
2019-02-17T06:41:43.806Z,102205.45
2019-02-17T06:46:48.108Z,102215.63
2019-02-17T06:51:50.756Z,102221.16
2019-02-17T06:57:00.979Z,102228.18
2019-02-17T07:02:03.824Z,102231.62
2019-02-17T07:07:06.485Z,102243.98
2019-02-17T07:12:09.131Z,102244.88
2019-02-17T07:17:11.795Z,102254.45
2019-02-17T07:22:14.540Z,102252.78
2019-02-17T07:27:17.222Z,102249.20
2019-02-17T07:32:19.909Z,102248.21
2019-02-17T07:37:32.774Z,102255.05
2019-02-17T07:42:26.954Z,102259.59
2019-02-17T07:47:29.612Z,102262.97
2019-02-17T07:52:34.225Z,102259.81
2019-02-17T07:57:36.632Z,102255.73
2019-02-17T08:02:39.285Z,102253.95
2019-02-17T08:07:41.954Z,102261.94
2019-02-17T08:12:44.608Z,102267.30
2019-02-17T08:17:47.281Z,102267.58
2019-02-17T08:22:49.985Z,102272.41
2019-02-17T08:27:52.652Z,102282.27
2019-02-17T08:32:55.328Z,102288.30
2019-02-17T08:37:58.037Z,102288.19
2019-02-17T08:43:00.707Z,102281.88
2019-02-17T08:48:03.384Z,102291.66
2019-02-17T08:53:06.054Z,102281.88
2019-02-17T08:58:08.836Z,102279.39
2019-02-17T09:03:11.501Z,102278.61
2019-02-17T09:08:14.157Z,102274.84
2019-02-17T09:13:18.508Z,102278.61
2019-02-17T09:18:21.175Z,102281.95
2019-02-17T09:23:23.911Z,102282.05
2019-02-17T09:28:26.540Z,102281.77
2019-02-17T09:33:29.177Z,102288.36
2019-02-17T09:38:31.876Z,102283.82
2019-02-17T09:43:34.535Z,102286.27
2019-02-17T09:48:37.215Z,102282.11
2019-02-17T09:53:39.917Z,102289.70
2019-02-17T09:58:42.588Z,102286.37
2019-02-17T10:03:45.285Z,102292.29
2019-02-17T10:08:48.022Z,102294.46
2019-02-17T10:13:50.719Z,102297.61
2019-02-17T10:18:53.373Z,102293.07
2019-02-17T10:23:56.035Z,102292.08
2019-02-17T10:28:58.710Z,102294.34
2019-02-17T10:34:01.448Z,102287.53
2019-02-17T10:39:05.151Z,102296.51
2019-02-17T10:44:07.799Z,102294.13
2019-02-17T10:49:10.464Z,102293.95
2019-02-17T10:54:13.132Z,102296.79
2019-02-17T10:59:15.840Z,102293.14
2019-02-17T11:04:18.491Z,102296.79
2019-02-17T11:09:21.140Z,102288.69
2019-02-17T11:14:23.844Z,102288.41
2019-02-17T11:19:26.522Z,102291.07
2019-02-17T11:24:29.252Z,102289.97
2019-02-17T11:29:31.917Z,102279.00
2019-02-17T11:34:34.575Z,102277.12
2019-02-17T11:39:37.230Z,102270.59
2019-02-17T11:44:39.876Z,102271.80
2019-02-17T11:49:42.592Z,102270.20
2019-02-17T11:54:47.556Z,102271.09
2019-02-17T11:59:49.644Z,102274.24
2019-02-17T12:04:52.304Z,102267.32
2019-02-17T12:09:54.986Z,102273.14
2019-02-17T12:14:57.630Z,102271.36
2019-02-17T12:20:01.918Z,102279.56
2019-02-17T12:25:05.228Z,102279.17
2019-02-17T12:30:09.096Z,102276.41
2019-02-17T12:35:11.773Z,102279.06
2019-02-17T12:40:14.452Z,102267.48
2019-02-17T12:45:18.411Z,102263.34
2019-02-17T12:50:21.217Z,102265.50
2019-02-17T12:55:23.917Z,102262.84
2019-02-17T13:00:26.610Z,102262.95
2019-02-17T13:05:29.374Z,102267.10
2019-02-17T13:10:32.044Z,102256.03
2019-02-17T13:15:34.691Z,102255.25
2019-02-17T13:20:37.361Z,102260.56
2019-02-17T13:25:40.010Z,102264.33
2019-02-17T13:30:43.536Z,102271.53
2019-02-17T13:35:46.209Z,102279.55
2019-02-17T13:40:48.942Z,102268.32
2019-02-17T13:45:51.607Z,102276.91
2019-02-17T13:50:54.288Z,102284.91
2019-02-17T13:55:56.964Z,102275.11
2019-02-17T14:00:59.648Z,102275.95
2019-02-17T14:06:02.299Z,102277.09
2019-02-17T14:11:04.974Z,102270.66
2019-02-17T14:16:07.631Z,102270.77
2019-02-17T14:21:10.324Z,102264.73
2019-02-17T14:26:13.008Z,102266.80
2019-02-17T14:31:15.652Z,102253.95
2019-02-17T14:36:18.316Z,102247.79
2019-02-17T14:41:20.996Z,102240.53
2019-02-17T14:46:23.788Z,102231.77
2019-02-17T14:51:26.471Z,102229.70
2019-02-17T14:56:29.492Z,102223.34
2019-02-17T15:01:32.199Z,102230.44
2019-02-17T15:06:34.853Z,102229.55
2019-02-17T15:11:37.512Z,102231.73
2019-02-17T15:16:40.192Z,102228.76
2019-02-17T15:21:42.855Z,102227.05
2019-02-17T15:26:45.531Z,102220.13
2019-02-17T15:31:48.218Z,102222.53
2019-02-17T15:36:50.888Z,102225.54
2019-02-17T15:41:53.557Z,102224.66
2019-02-17T15:46:56.205Z,102224.00
2019-02-17T15:51:58.861Z,102227.09
2019-02-17T15:57:01.525Z,102220.50
2019-02-17T16:02:04.207Z,102220.34
2019-02-17T16:07:06.885Z,102216.11
2019-02-17T16:12:09.548Z,102219.50
2019-02-17T16:17:12.212Z,102228.92
2019-02-17T16:22:14.908Z,102233.69
2019-02-17T16:27:17.602Z,102235.77
2019-02-17T16:32:21.760Z,102231.72
2019-02-17T16:37:24.741Z,102235.99
2019-02-17T16:42:27.435Z,102235.83
2019-02-17T16:47:30.127Z,102240.37
2019-02-17T16:52:32.891Z,102247.91
2019-02-17T16:57:36.029Z,102261.15
2019-02-17T17:02:38.829Z,102248.09
2019-02-17T17:07:41.483Z,102251.28
2019-02-17T17:12:44.219Z,102248.70
2019-02-17T17:17:46.832Z,102246.33
2019-02-17T17:22:49.496Z,102252.48
2019-02-17T17:27:52.145Z,102253.47
2019-02-17T17:32:54.856Z,102253.86
2019-02-17T17:37:57.541Z,102241.02
2019-02-17T17:43:00.208Z,102238.02
2019-02-17T17:48:02.877Z,102244.94
2019-02-17T17:53:05.543Z,102237.52
2019-02-17T17:58:08.213Z,102233.97
2019-02-17T18:03:10.882Z,102238.91
2019-02-17T18:08:13.552Z,102241.17
2019-02-17T18:13:16.196Z,102237.13
2019-02-17T18:18:18.850Z,102247.83
2019-02-17T18:23:21.496Z,102253.56
2019-02-17T18:28:24.141Z,102254.45
2019-02-17T18:33:26.800Z,102253.95
2019-02-17T18:38:29.472Z,102250.67
2019-02-17T18:43:32.164Z,102256.27
2019-02-17T18:48:34.900Z,102257.77
2019-02-17T18:53:37.564Z,102263.69
2019-02-17T18:58:40.248Z,102254.77
2019-02-17T19:03:42.897Z,102252.89
2019-02-17T19:08:45.591Z,102251.11
2019-02-17T19:13:48.301Z,102248.73
2019-02-17T19:18:50.940Z,102255.55
2019-02-17T19:23:53.650Z,102253.66
2019-02-17T19:28:56.316Z,102248.43
2019-02-17T19:33:58.984Z,102242.58
2019-02-17T19:39:01.631Z,102244.16
2019-02-17T19:44:04.313Z,102247.20
2019-02-17T19:49:06.960Z,102247.59
2019-02-17T19:54:09.639Z,102246.31
2019-02-17T19:59:12.320Z,102254.41
2019-02-17T20:04:19.352Z,102253.52
2019-02-17T20:09:22.030Z,102252.79
2019-02-17T20:14:24.699Z,102256.95
2019-02-17T20:19:27.401Z,102252.91
2019-02-17T20:24:30.130Z,102244.31
2019-02-17T20:29:32.854Z,102248.13
2019-02-17T20:34:35.504Z,102240.82
2019-02-17T20:39:38.207Z,102244.59
2019-02-17T20:44:40.864Z,102244.20
2019-02-17T20:49:43.542Z,102234.78
2019-02-17T20:54:46.318Z,102229.47
2019-02-17T20:59:48.980Z,102233.89
2019-02-17T21:04:51.676Z,102235.01
2019-02-17T21:09:54.344Z,102227.85
2019-02-17T21:14:57.028Z,102227.97
2019-02-17T21:19:59.678Z,102232.12
2019-02-17T21:25:02.340Z,102237.16
2019-02-17T21:30:06.648Z,102234.39
2019-02-17T21:35:10.584Z,102226.88
2019-02-17T21:40:13.639Z,102218.16
2019-02-17T21:45:16.692Z,102220.92
2019-02-17T21:50:19.348Z,102213.61
2019-02-17T21:55:22.027Z,102213.61
2019-02-17T22:00:24.693Z,102213.91
2019-02-17T22:05:27.399Z,102214.23
2019-02-17T22:10:30.078Z,102204.41
2019-02-17T22:15:32.751Z,102213.91
2019-02-17T22:20:35.412Z,102208.07
2019-02-17T22:25:38.121Z,102200.98
2019-02-17T22:30:40.779Z,102199.22
2019-02-17T22:35:43.452Z,102203.59
2019-02-17T22:40:46.133Z,102210.57
2019-02-17T22:45:48.796Z,102204.09
2019-02-17T22:50:51.463Z,102198.72
2019-02-17T22:55:54.143Z,102201.76
2019-02-17T23:00:59.219Z,102207.41
2019-02-17T23:06:01.871Z,102190.52
2019-02-17T23:11:04.544Z,102184.09
2019-02-17T23:16:07.217Z,102189.91
2019-02-17T23:21:09.855Z,102187.13
2019-02-17T23:26:12.535Z,102175.01
2019-02-17T23:31:15.226Z,102184.31
2019-02-17T23:36:17.872Z,102187.86
2019-02-17T23:41:20.515Z,102184.90
2019-02-17T23:46:23.176Z,102186.59
2019-02-17T23:51:25.868Z,102189.44
2019-02-17T23:56:28.530Z,102177.39
